sensor_id;sensor_type;location;lat;lon;timestamp;temperature;humidity
48535;DHT22;34323;52.022;5.686;2023-01-13T00:01:06;13.00;99.90
48535;DHT22;34323;52.022;5.686;2023-01-13T00:03:32;13.20;99.90
48535;DHT22;34323;52.022;5.686;2023-01-13T00:05:58;13.40;99.90
48535;DHT22;34323;52.022;5.686;2023-01-13T00:08:24;13.40;99.90
48535;DHT22;34323;52.022;5.686;2023-01-13T00:10:50;13.40;99.90
48535;DHT22;34323;52.022;5.686;2023-01-13T00:13:15;13.30;99.90
48535;DHT22;34323;52.022;5.686;2023-01-13T00:15:42;13.40;99.90
48535;DHT22;34323;52.022;5.686;2023-01-13T00:18:07;13.80;99.90
48535;DHT22;34323;52.022;5.686;2023-01-13T00:20:33;13.40;99.90
48535;DHT22;34323;52.022;5.686;2023-01-13T00:22:59;13.50;99.90
48535;DHT22;34323;52.022;5.686;2023-01-13T00:25:25;13.50;99.90
48535;DHT22;34323;52.022;5.686;2023-01-13T00:27:51;13.40;99.90
48535;DHT22;34323;52.022;5.686;2023-01-13T00:30:16;13.60;99.90
48535;DHT22;34323;52.022;5.686;2023-01-13T00:32:42;13.70;99.90
48535;DHT22;34323;52.022;5.686;2023-01-13T00:35:08;13.80;99.90
48535;DHT22;34323;52.022;5.686;2023-01-13T00:37:36;13.70;99.90
48535;DHT22;34323;52.022;5.686;2023-01-13T00:40:03;13.70;99.90
48535;DHT22;34323;52.022;5.686;2023-01-13T00:42:29;13.40;99.90
48535;DHT22;34323;52.022;5.686;2023-01-13T00:45:13;13.40;99.90
48535;DHT22;34323;52.022;5.686;2023-01-13T00:47:39;13.00;99.90
48535;DHT22;34323;52.022;5.686;2023-01-13T00:50:05;13.10;99.90
48535;DHT22;34323;52.022;5.686;2023-01-13T00:52:32;12.80;99.90
48535;DHT22;34323;52.022;5.686;2023-01-13T00:54:57;12.80;99.90
48535;DHT22;34323;52.022;5.686;2023-01-13T00:57:23;12.70;99.90
48535;DHT22;34323;52.022;5.686;2023-01-13T00:59:49;12.50;99.90
48535;DHT22;34323;52.022;5.686;2023-01-13T01:02:14;12.60;99.90
48535;DHT22;34323;52.022;5.686;2023-01-13T01:04:40;12.80;99.90
48535;DHT22;34323;52.022;5.686;2023-01-13T01:07:05;12.20;99.90
48535;DHT22;34323;52.022;5.686;2023-01-13T01:09:31;12.10;99.90
48535;DHT22;34323;52.022;5.686;2023-01-13T01:11:59;12.40;99.90
48535;DHT22;34323;52.022;5.686;2023-01-13T01:14:25;12.00;99.90
48535;DHT22;34323;52.022;5.686;2023-01-13T01:16:52;11.50;99.90
48535;DHT22;34323;52.022;5.686;2023-01-13T01:19:17;11.90;99.90
48535;DHT22;34323;52.022;5.686;2023-01-13T01:21:43;12.10;99.90
48535;DHT22;34323;52.022;5.686;2023-01-13T01:24:09;12.50;99.90
48535;DHT22;34323;52.022;5.686;2023-01-13T01:26:34;12.30;99.90
48535;DHT22;34323;52.022;5.686;2023-01-13T01:29:00;12.50;99.90
48535;DHT22;34323;52.022;5.686;2023-01-13T01:31:35;12.40;99.90
48535;DHT22;34323;52.022;5.686;2023-01-13T01:34:01;12.30;99.90
48535;DHT22;34323;52.022;5.686;2023-01-13T01:36:27;12.30;99.90
48535;DHT22;34323;52.022;5.686;2023-01-13T01:38:57;12.40;99.90
48535;DHT22;34323;52.022;5.686;2023-01-13T01:41:26;12.60;99.90
48535;DHT22;34323;52.022;5.686;2023-01-13T01:43:59;12.70;99.90
48535;DHT22;34323;52.022;5.686;2023-01-13T01:46:39;12.80;99.90
48535;DHT22;34323;52.022;5.686;2023-01-13T01:49:31;13.00;99.90
48535;DHT22;34323;52.022;5.686;2023-01-13T01:52:03;13.30;99.90
48535;DHT22;34323;52.022;5.686;2023-01-13T01:54:47;12.90;99.90
48535;DHT22;34323;52.022;5.686;2023-01-13T01:57:22;12.30;99.90
48535;DHT22;34323;52.022;5.686;2023-01-13T01:59:48;12.00;99.90
48535;DHT22;34323;52.022;5.686;2023-01-13T02:02:14;12.10;99.90
48535;DHT22;34323;52.022;5.686;2023-01-13T02:04:43;12.20;99.90
48535;DHT22;34323;52.022;5.686;2023-01-13T02:07:17;12.30;99.90
48535;DHT22;34323;52.022;5.686;2023-01-13T02:09:43;12.40;99.90
48535;DHT22;34323;52.022;5.686;2023-01-13T02:12:09;12.60;99.90
48535;DHT22;34323;52.022;5.686;2023-01-13T02:14:54;12.70;99.90
48535;DHT22;34323;52.022;5.686;2023-01-13T02:22:30;12.00;99.90
48535;DHT22;34323;52.022;5.686;2023-01-13T02:25:15;11.80;99.90
48535;DHT22;34323;52.022;5.686;2023-01-13T02:28:02;11.40;99.90
48535;DHT22;34323;52.022;5.686;2023-01-13T02:30:46;11.50;99.90
48535;DHT22;34323;52.022;5.686;2023-01-13T02:36:39;12.10;99.90
48535;DHT22;34323;52.022;5.686;2023-01-13T02:42:04;12.10;99.90
48535;DHT22;34323;52.022;5.686;2023-01-13T02:44:54;11.80;99.90
48535;DHT22;34323;52.022;5.686;2023-01-13T02:47:24;12.10;99.90
48535;DHT22;34323;52.022;5.686;2023-01-13T02:50:03;12.20;99.90
48535;DHT22;34323;52.022;5.686;2023-01-13T02:52:50;11.90;99.90
48535;DHT22;34323;52.022;5.686;2023-01-13T02:55:21;11.80;99.90
48535;DHT22;34323;52.022;5.686;2023-01-13T02:57:48;11.80;99.90
48535;DHT22;34323;52.022;5.686;2023-01-13T03:00:16;11.80;99.90
48535;DHT22;34323;52.022;5.686;2023-01-13T03:02:42;12.20;99.90
48535;DHT22;34323;52.022;5.686;2023-01-13T03:05:12;12.20;99.90
48535;DHT22;34323;52.022;5.686;2023-01-13T03:07:53;12.40;99.90
48535;DHT22;34323;52.022;5.686;2023-01-13T03:13:24;11.80;99.90
48535;DHT22;34323;52.022;5.686;2023-01-13T03:16:30;11.90;99.90
48535;DHT22;34323;52.022;5.686;2023-01-13T03:22:06;12.40;99.90
48535;DHT22;34323;52.022;5.686;2023-01-13T03:24:48;12.30;99.90
48535;DHT22;34323;52.022;5.686;2023-01-13T03:27:34;11.80;99.90
48535;DHT22;34323;52.022;5.686;2023-01-13T03:30:07;11.90;99.90
48535;DHT22;34323;52.022;5.686;2023-01-13T03:32:51;11.90;99.90
48535;DHT22;34323;52.022;5.686;2023-01-13T03:35:31;11.90;99.90
48535;DHT22;34323;52.022;5.686;2023-01-13T03:38:04;11.90;99.90
48535;DHT22;34323;52.022;5.686;2023-01-13T03:40:34;11.90;99.90
48535;DHT22;34323;52.022;5.686;2023-01-13T03:43:13;11.60;99.90
48535;DHT22;34323;52.022;5.686;2023-01-13T03:46:03;11.60;99.90
48535;DHT22;34323;52.022;5.686;2023-01-13T03:48:30;11.80;99.90
48535;DHT22;34323;52.022;5.686;2023-01-13T03:51:04;11.90;99.90
48535;DHT22;34323;52.022;5.686;2023-01-13T03:53:45;11.50;99.90
48535;DHT22;34323;52.022;5.686;2023-01-13T03:56:38;11.60;99.90
48535;DHT22;34323;52.022;5.686;2023-01-13T03:59:08;11.80;99.90
48535;DHT22;34323;52.022;5.686;2023-01-13T04:01:47;11.80;99.90
48535;DHT22;34323;52.022;5.686;2023-01-13T04:04:46;12.00;99.90
48535;DHT22;34323;52.022;5.686;2023-01-13T04:07:26;12.30;99.90
48535;DHT22;34323;52.022;5.686;2023-01-13T04:09:56;12.20;99.90
48535;DHT22;34323;52.022;5.686;2023-01-13T04:12:31;12.20;99.90
48535;DHT22;34323;52.022;5.686;2023-01-13T04:15:16;12.30;99.90
48535;DHT22;34323;52.022;5.686;2023-01-13T04:17:43;12.50;99.90
48535;DHT22;34323;52.022;5.686;2023-01-13T04:20:09;12.10;99.90
48535;DHT22;34323;52.022;5.686;2023-01-13T04:22:35;12.10;99.90
48535;DHT22;34323;52.022;5.686;2023-01-13T04:25:00;12.10;99.90
48535;DHT22;34323;52.022;5.686;2023-01-13T04:27:26;12.10;99.90
48535;DHT22;34323;52.022;5.686;2023-01-13T04:29:52;11.70;99.90
48535;DHT22;34323;52.022;5.686;2023-01-13T04:32:17;11.40;99.90
48535;DHT22;34323;52.022;5.686;2023-01-13T04:34:43;11.00;99.90
48535;DHT22;34323;52.022;5.686;2023-01-13T04:37:09;10.70;99.90
48535;DHT22;34323;52.022;5.686;2023-01-13T04:39:34;10.60;99.90
48535;DHT22;34323;52.022;5.686;2023-01-13T04:42:00;10.90;99.90
48535;DHT22;34323;52.022;5.686;2023-01-13T04:44:27;11.20;99.90
48535;DHT22;34323;52.022;5.686;2023-01-13T04:46:53;11.50;99.90
48535;DHT22;34323;52.022;5.686;2023-01-13T04:49:18;11.40;99.90
48535;DHT22;34323;52.022;5.686;2023-01-13T04:51:44;11.30;99.90
48535;DHT22;34323;52.022;5.686;2023-01-13T04:54:10;11.40;99.90
48535;DHT22;34323;52.022;5.686;2023-01-13T04:56:36;11.40;99.90
48535;DHT22;34323;52.022;5.686;2023-01-13T04:59:01;11.60;99.90
48535;DHT22;34323;52.022;5.686;2023-01-13T05:01:27;11.30;99.90
48535;DHT22;34323;52.022;5.686;2023-01-13T05:03:52;11.50;99.90
48535;DHT22;34323;52.022;5.686;2023-01-13T05:06:18;11.40;99.90
48535;DHT22;34323;52.022;5.686;2023-01-13T05:08:43;11.40;99.90
48535;DHT22;34323;52.022;5.686;2023-01-13T05:11:09;11.40;99.90
48535;DHT22;34323;52.022;5.686;2023-01-13T05:13:53;11.60;99.90
48535;DHT22;34323;52.022;5.686;2023-01-13T05:16:37;11.70;99.90
48535;DHT22;34323;52.022;5.686;2023-01-13T05:19:36;11.30;99.90
48535;DHT22;34323;52.022;5.686;2023-01-13T05:22:05;11.10;99.90
48535;DHT22;34323;52.022;5.686;2023-01-13T05:24:50;11.40;99.90
48535;DHT22;34323;52.022;5.686;2023-01-13T05:27:34;11.50;99.90
48535;DHT22;34323;52.022;5.686;2023-01-13T05:30:00;11.70;99.90
48535;DHT22;34323;52.022;5.686;2023-01-13T05:32:26;11.90;99.90
48535;DHT22;34323;52.022;5.686;2023-01-13T05:34:55;11.90;99.90
48535;DHT22;34323;52.022;5.686;2023-01-13T05:37:21;11.80;99.90
48535;DHT22;34323;52.022;5.686;2023-01-13T05:39:46;11.60;99.90
48535;DHT22;34323;52.022;5.686;2023-01-13T05:42:31;11.50;99.90
48535;DHT22;34323;52.022;5.686;2023-01-13T05:45:15;11.10;99.90
48535;DHT22;34323;52.022;5.686;2023-01-13T05:47:41;11.20;99.90
48535;DHT22;34323;52.022;5.686;2023-01-13T05:50:07;11.60;99.90
48535;DHT22;34323;52.022;5.686;2023-01-13T05:52:32;11.60;99.90
48535;DHT22;34323;52.022;5.686;2023-01-13T05:54:58;11.40;99.90
48535;DHT22;34323;52.022;5.686;2023-01-13T05:57:23;11.10;99.90
48535;DHT22;34323;52.022;5.686;2023-01-13T05:59:49;10.70;99.90
48535;DHT22;34323;52.022;5.686;2023-01-13T06:02:15;10.70;99.90
48535;DHT22;34323;52.022;5.686;2023-01-13T06:04:40;11.10;99.90
48535;DHT22;34323;52.022;5.686;2023-01-13T06:07:06;11.30;99.90
48535;DHT22;34323;52.022;5.686;2023-01-13T06:09:31;11.80;99.90
48535;DHT22;34323;52.022;5.686;2023-01-13T06:11:57;11.60;99.90
48535;DHT22;34323;52.022;5.686;2023-01-13T06:14:23;11.60;99.90
48535;DHT22;34323;52.022;5.686;2023-01-13T06:16:48;11.60;99.90
48535;DHT22;34323;52.022;5.686;2023-01-13T06:19:14;11.60;99.90
48535;DHT22;34323;52.022;5.686;2023-01-13T06:21:39;11.80;99.90
48535;DHT22;34323;52.022;5.686;2023-01-13T06:24:06;11.20;99.90
48535;DHT22;34323;52.022;5.686;2023-01-13T06:26:36;11.50;99.90
48535;DHT22;34323;52.022;5.686;2023-01-13T06:29:02;11.40;99.90
48535;DHT22;34323;52.022;5.686;2023-01-13T06:31:29;10.90;99.90
48535;DHT22;34323;52.022;5.686;2023-01-13T06:33:58;11.00;99.90
48535;DHT22;34323;52.022;5.686;2023-01-13T06:36:40;11.20;99.90
48535;DHT22;34323;52.022;5.686;2023-01-13T06:39:08;11.50;99.90
48535;DHT22;34323;52.022;5.686;2023-01-13T06:41:35;11.20;99.90
48535;DHT22;34323;52.022;5.686;2023-01-13T06:44:19;11.20;99.90
48535;DHT22;34323;52.022;5.686;2023-01-13T06:46:47;11.30;99.90
48535;DHT22;34323;52.022;5.686;2023-01-13T06:49:12;11.40;99.90
48535;DHT22;34323;52.022;5.686;2023-01-13T06:51:38;11.40;99.90
48535;DHT22;34323;52.022;5.686;2023-01-13T06:54:04;11.70;99.90
48535;DHT22;34323;52.022;5.686;2023-01-13T06:56:29;11.40;99.90
48535;DHT22;34323;52.022;5.686;2023-01-13T06:58:55;11.50;99.90
48535;DHT22;34323;52.022;5.686;2023-01-13T07:01:20;11.50;99.90
48535;DHT22;34323;52.022;5.686;2023-01-13T07:03:46;11.70;99.90
48535;DHT22;34323;52.022;5.686;2023-01-13T07:06:12;11.50;99.90
48535;DHT22;34323;52.022;5.686;2023-01-13T07:08:37;11.40;99.90
48535;DHT22;34323;52.022;5.686;2023-01-13T07:11:03;11.60;99.90
48535;DHT22;34323;52.022;5.686;2023-01-13T07:13:28;11.40;99.90
48535;DHT22;34323;52.022;5.686;2023-01-13T07:16:12;11.10;99.90
48535;DHT22;34323;52.022;5.686;2023-01-13T07:18:38;11.00;99.90
48535;DHT22;34323;52.022;5.686;2023-01-13T07:21:06;11.00;99.90
48535;DHT22;34323;52.022;5.686;2023-01-13T07:23:35;11.20;99.90
48535;DHT22;34323;52.022;5.686;2023-01-13T07:26:01;11.20;99.90
48535;DHT22;34323;52.022;5.686;2023-01-13T07:28:28;11.30;99.90
48535;DHT22;34323;52.022;5.686;2023-01-13T07:30:55;11.60;99.90
48535;DHT22;34323;52.022;5.686;2023-01-13T07:33:20;11.70;99.90
48535;DHT22;34323;52.022;5.686;2023-01-13T07:35:47;11.70;99.90
48535;DHT22;34323;52.022;5.686;2023-01-13T07:38:14;11.60;99.90
48535;DHT22;34323;52.022;5.686;2023-01-13T07:40:39;11.80;99.90
48535;DHT22;34323;52.022;5.686;2023-01-13T07:43:05;11.80;99.90
48535;DHT22;34323;52.022;5.686;2023-01-13T07:46:03;11.70;99.90
48535;DHT22;34323;52.022;5.686;2023-01-13T07:48:30;12.00;99.90
48535;DHT22;34323;52.022;5.686;2023-01-13T07:51:00;12.10;99.90
48535;DHT22;34323;52.022;5.686;2023-01-13T07:53:26;11.80;99.90
48535;DHT22;34323;52.022;5.686;2023-01-13T07:55:56;11.60;99.90
48535;DHT22;34323;52.022;5.686;2023-01-13T07:58:22;11.80;99.90
48535;DHT22;34323;52.022;5.686;2023-01-13T08:00:49;11.60;99.90
48535;DHT22;34323;52.022;5.686;2023-01-13T08:03:14;11.50;99.90
48535;DHT22;34323;52.022;5.686;2023-01-13T08:05:40;11.40;99.90
48535;DHT22;34323;52.022;5.686;2023-01-13T08:08:06;11.60;99.90
48535;DHT22;34323;52.022;5.686;2023-01-13T08:10:31;11.90;99.90
48535;DHT22;34323;52.022;5.686;2023-01-13T08:12:57;11.90;99.90
48535;DHT22;34323;52.022;5.686;2023-01-13T08:15:42;11.70;99.90
48535;DHT22;34323;52.022;5.686;2023-01-13T08:18:07;11.50;99.90
48535;DHT22;34323;52.022;5.686;2023-01-13T08:20:33;11.60;99.90
48535;DHT22;34323;52.022;5.686;2023-01-13T08:22:59;11.30;99.90
48535;DHT22;34323;52.022;5.686;2023-01-13T08:25:26;11.20;99.90
48535;DHT22;34323;52.022;5.686;2023-01-13T08:27:53;11.40;99.90
48535;DHT22;34323;52.022;5.686;2023-01-13T08:30:19;11.80;99.90
48535;DHT22;34323;52.022;5.686;2023-01-13T08:32:46;12.10;99.90
48535;DHT22;34323;52.022;5.686;2023-01-13T08:35:12;11.60;99.90
48535;DHT22;34323;52.022;5.686;2023-01-13T08:37:38;11.60;99.90
48535;DHT22;34323;52.022;5.686;2023-01-13T08:40:05;11.60;99.90
48535;DHT22;34323;52.022;5.686;2023-01-13T08:42:31;11.50;99.90
48535;DHT22;34323;52.022;5.686;2023-01-13T08:44:56;11.60;99.90
48535;DHT22;34323;52.022;5.686;2023-01-13T08:47:22;11.70;99.90
48535;DHT22;34323;52.022;5.686;2023-01-13T08:49:48;11.80;99.90
48535;DHT22;34323;52.022;5.686;2023-01-13T08:52:14;11.70;99.90
48535;DHT22;34323;52.022;5.686;2023-01-13T08:54:40;11.40;99.90
48535;DHT22;34323;52.022;5.686;2023-01-13T08:57:06;11.60;99.90
48535;DHT22;34323;52.022;5.686;2023-01-13T08:59:32;11.10;99.90
48535;DHT22;34323;52.022;5.686;2023-01-13T09:01:58;11.20;99.90
48535;DHT22;34323;52.022;5.686;2023-01-13T09:04:25;11.40;99.90
48535;DHT22;34323;52.022;5.686;2023-01-13T09:06:53;11.20;99.90
48535;DHT22;34323;52.022;5.686;2023-01-13T09:09:20;10.90;99.90
48535;DHT22;34323;52.022;5.686;2023-01-13T09:11:48;11.10;99.90
48535;DHT22;34323;52.022;5.686;2023-01-13T09:14:35;11.20;99.90
48535;DHT22;34323;52.022;5.686;2023-01-13T09:17:01;10.90;99.90
48535;DHT22;34323;52.022;5.686;2023-01-13T09:19:27;11.10;99.90
48535;DHT22;34323;52.022;5.686;2023-01-13T09:21:54;10.90;99.90
48535;DHT22;34323;52.022;5.686;2023-01-13T09:24:20;11.10;99.90
48535;DHT22;34323;52.022;5.686;2023-01-13T09:26:49;11.20;99.90
48535;DHT22;34323;52.022;5.686;2023-01-13T09:29:15;11.60;99.90
48535;DHT22;34323;52.022;5.686;2023-01-13T09:31:41;11.60;99.90
48535;DHT22;34323;52.022;5.686;2023-01-13T09:34:13;11.80;99.90
48535;DHT22;34323;52.022;5.686;2023-01-13T09:36:58;11.60;99.90
48535;DHT22;34323;52.022;5.686;2023-01-13T09:39:24;11.00;99.90
48535;DHT22;34323;52.022;5.686;2023-01-13T09:41:52;10.90;99.90
48535;DHT22;34323;52.022;5.686;2023-01-13T09:45:02;11.40;99.90
48535;DHT22;34323;52.022;5.686;2023-01-13T09:47:42;11.50;99.90
48535;DHT22;34323;52.022;5.686;2023-01-13T09:50:23;11.50;99.90
48535;DHT22;34323;52.022;5.686;2023-01-13T09:52:50;11.40;99.90
48535;DHT22;34323;52.022;5.686;2023-01-13T09:55:31;11.40;99.90
48535;DHT22;34323;52.022;5.686;2023-01-13T09:58:00;11.10;99.90
48535;DHT22;34323;52.022;5.686;2023-01-13T10:00:38;11.00;99.90
48535;DHT22;34323;52.022;5.686;2023-01-13T10:03:18;11.40;99.90
48535;DHT22;34323;52.022;5.686;2023-01-13T10:08:33;11.20;99.90
48535;DHT22;34323;52.022;5.686;2023-01-13T10:11:01;11.10;99.90
48535;DHT22;34323;52.022;5.686;2023-01-13T10:13:54;10.80;99.90
48535;DHT22;34323;52.022;5.686;2023-01-13T10:16:29;10.80;99.90
48535;DHT22;34323;52.022;5.686;2023-01-13T10:19:21;11.30;99.90
48535;DHT22;34323;52.022;5.686;2023-01-13T10:30:19;11.00;99.90
48535;DHT22;34323;52.022;5.686;2023-01-13T10:32:56;10.50;99.90
48535;DHT22;34323;52.022;5.686;2023-01-13T10:38:20;10.70;99.90
48535;DHT22;34323;52.022;5.686;2023-01-13T10:40:53;11.10;99.90
48535;DHT22;34323;52.022;5.686;2023-01-13T10:43:20;11.20;99.90
48535;DHT22;34323;52.022;5.686;2023-01-13T10:48:21;10.90;99.90
48535;DHT22;34323;52.022;5.686;2023-01-13T10:50:47;10.90;99.90
48535;DHT22;34323;52.022;5.686;2023-01-13T10:53:31;11.20;99.90
48535;DHT22;34323;52.022;5.686;2023-01-13T10:56:00;11.70;99.90
48535;DHT22;34323;52.022;5.686;2023-01-13T10:58:26;12.00;99.90
48535;DHT22;34323;52.022;5.686;2023-01-13T11:01:03;12.30;99.90
48535;DHT22;34323;52.022;5.686;2023-01-13T11:03:39;12.30;99.90
48535;DHT22;34323;52.022;5.686;2023-01-13T11:06:08;12.40;99.90
48535;DHT22;34323;52.022;5.686;2023-01-13T11:08:45;11.70;99.90
48535;DHT22;34323;52.022;5.686;2023-01-13T11:11:37;11.60;99.90
48535;DHT22;34323;52.022;5.686;2023-01-13T11:16:57;12.00;99.90
48535;DHT22;34323;52.022;5.686;2023-01-13T11:19:27;12.20;99.90
48535;DHT22;34323;52.022;5.686;2023-01-13T11:21:57;11.60;99.90
48535;DHT22;34323;52.022;5.686;2023-01-13T11:24:53;11.60;99.90
48535;DHT22;34323;52.022;5.686;2023-01-13T11:35:39;12.10;99.90
48535;DHT22;34323;52.022;5.686;2023-01-13T11:41:14;11.80;99.90
48535;DHT22;34323;52.022;5.686;2023-01-13T11:44:02;12.10;99.90
48535;DHT22;34323;52.022;5.686;2023-01-13T11:46:30;12.10;99.90
48535;DHT22;34323;52.022;5.686;2023-01-13T11:48:56;12.50;99.90
48535;DHT22;34323;52.022;5.686;2023-01-13T11:51:34;12.70;99.90
48535;DHT22;34323;52.022;5.686;2023-01-13T11:54:28;12.70;99.90
48535;DHT22;34323;52.022;5.686;2023-01-13T11:59:52;12.90;99.90
48535;DHT22;34323;52.022;5.686;2023-01-13T12:07:58;12.40;99.90
48535;DHT22;34323;52.022;5.686;2023-01-13T12:11:01;12.30;99.90
48535;DHT22;34323;52.022;5.686;2023-01-13T12:18:51;12.70;99.90
48535;DHT22;34323;52.022;5.686;2023-01-13T12:21:29;12.80;99.90
48535;DHT22;34323;52.022;5.686;2023-01-13T12:24:26;12.70;99.90
48535;DHT22;34323;52.022;5.686;2023-01-13T12:27:19;12.60;99.90
48535;DHT22;34323;52.022;5.686;2023-01-13T12:29:43;12.80;99.90
48535;DHT22;34323;52.022;5.686;2023-01-13T12:32:34;12.90;99.90
48535;DHT22;34323;52.022;5.686;2023-01-13T12:35:06;13.00;99.90
48535;DHT22;34323;52.022;5.686;2023-01-13T12:51:30;13.00;99.90
48535;DHT22;34323;52.022;5.686;2023-01-13T12:54:02;13.00;99.90
48535;DHT22;34323;52.022;5.686;2023-01-13T12:56:43;13.00;99.90
48535;DHT22;34323;52.022;5.686;2023-01-13T13:01:42;12.70;99.90
48535;DHT22;34323;52.022;5.686;2023-01-13T13:04:13;12.90;99.90
48535;DHT22;34323;52.022;5.686;2023-01-13T13:06:43;12.70;99.90
48535;DHT22;34323;52.022;5.686;2023-01-13T13:09:27;12.70;99.90
48535;DHT22;34323;52.022;5.686;2023-01-13T13:11:53;12.80;99.90
48535;DHT22;34323;52.022;5.686;2023-01-13T13:19:53;13.00;99.90
48535;DHT22;34323;52.022;5.686;2023-01-13T13:27:16;13.00;99.90
48535;DHT22;34323;52.022;5.686;2023-01-13T13:29:54;13.20;99.90
48535;DHT22;34323;52.022;5.686;2023-01-13T13:41:10;13.30;99.90
48535;DHT22;34323;52.022;5.686;2023-01-13T13:43:59;13.00;99.90
48535;DHT22;34323;52.022;5.686;2023-01-13T13:46:46;12.80;99.90
48535;DHT22;34323;52.022;5.686;2023-01-13T13:49:34;13.00;99.90
48535;DHT22;34323;52.022;5.686;2023-01-13T13:52:21;13.00;99.90
48535;DHT22;34323;52.022;5.686;2023-01-13T13:54:53;13.10;99.90
48535;DHT22;34323;52.022;5.686;2023-01-13T13:57:32;13.10;99.90
48535;DHT22;34323;52.022;5.686;2023-01-13T13:59:59;13.10;99.90
48535;DHT22;34323;52.022;5.686;2023-01-13T14:02:30;13.30;99.90
48535;DHT22;34323;52.022;5.686;2023-01-13T14:05:20;13.30;99.90
48535;DHT22;34323;52.022;5.686;2023-01-13T14:07:49;13.40;99.90
48535;DHT22;34323;52.022;5.686;2023-01-13T14:10:24;13.30;99.90
48535;DHT22;34323;52.022;5.686;2023-01-13T14:12:52;13.50;99.90
48535;DHT22;34323;52.022;5.686;2023-01-13T14:15:29;13.30;99.90
48535;DHT22;34323;52.022;5.686;2023-01-13T14:17:57;13.40;99.90
48535;DHT22;34323;52.022;5.686;2023-01-13T14:20:22;13.50;99.90
48535;DHT22;34323;52.022;5.686;2023-01-13T14:22:50;13.40;99.90
48535;DHT22;34323;52.022;5.686;2023-01-13T14:25:36;13.40;99.90
48535;DHT22;34323;52.022;5.686;2023-01-13T14:28:20;13.40;99.90
48535;DHT22;34323;52.022;5.686;2023-01-13T14:30:47;13.40;99.90
48535;DHT22;34323;52.022;5.686;2023-01-13T14:33:16;13.00;99.90
48535;DHT22;34323;52.022;5.686;2023-01-13T14:38:40;13.30;99.90
48535;DHT22;34323;52.022;5.686;2023-01-13T14:41:20;13.60;99.90
48535;DHT22;34323;52.022;5.686;2023-01-13T14:43:48;13.70;99.90
48535;DHT22;34323;52.022;5.686;2023-01-13T14:46:15;13.60;99.90
48535;DHT22;34323;52.022;5.686;2023-01-13T14:48:43;13.80;99.90
48535;DHT22;34323;52.022;5.686;2023-01-13T14:51:13;13.70;99.90
48535;DHT22;34323;52.022;5.686;2023-01-13T14:53:45;13.70;99.90
48535;DHT22;34323;52.022;5.686;2023-01-13T14:59:30;13.80;99.90
48535;DHT22;34323;52.022;5.686;2023-01-13T15:01:47;13.80;99.90
48535;DHT22;34323;52.022;5.686;2023-01-13T15:04:24;13.90;99.90
48535;DHT22;34323;52.022;5.686;2023-01-13T15:06:55;13.90;99.90
48535;DHT22;34323;52.022;5.686;2023-01-13T15:09:26;13.70;99.90
48535;DHT22;34323;52.022;5.686;2023-01-13T15:11:52;13.60;99.90
48535;DHT22;34323;52.022;5.686;2023-01-13T15:14:25;13.80;99.90
48535;DHT22;34323;52.022;5.686;2023-01-13T15:16:52;13.80;99.90
48535;DHT22;34323;52.022;5.686;2023-01-13T15:19:18;13.80;99.90
48535;DHT22;34323;52.022;5.686;2023-01-13T15:21:44;13.90;99.90
48535;DHT22;34323;52.022;5.686;2023-01-13T15:24:09;13.70;99.90
48535;DHT22;34323;52.022;5.686;2023-01-13T15:26:35;13.20;99.90
48535;DHT22;34323;52.022;5.686;2023-01-13T15:29:02;13.30;99.90
48535;DHT22;34323;52.022;5.686;2023-01-13T15:31:29;13.10;99.90
48535;DHT22;34323;52.022;5.686;2023-01-13T15:33:55;13.20;99.90
48535;DHT22;34323;52.022;5.686;2023-01-13T15:36:24;13.00;99.90
48535;DHT22;34323;52.022;5.686;2023-01-13T15:38:50;13.30;99.90
48535;DHT22;34323;52.022;5.686;2023-01-13T15:41:16;12.90;99.90
48535;DHT22;34323;52.022;5.686;2023-01-13T15:43:41;12.80;99.90
48535;DHT22;34323;52.022;5.686;2023-01-13T15:46:26;13.00;99.90
48535;DHT22;34323;52.022;5.686;2023-01-13T15:49:26;13.30;99.90
48535;DHT22;34323;52.022;5.686;2023-01-13T15:51:52;13.50;99.90
48535;DHT22;34323;52.022;5.686;2023-01-13T15:54:18;13.70;99.90
48535;DHT22;34323;52.022;5.686;2023-01-13T15:56:47;13.70;99.90
48535;DHT22;34323;52.022;5.686;2023-01-13T15:59:18;13.50;99.90
48535;DHT22;34323;52.022;5.686;2023-01-13T16:01:45;13.50;99.90
48535;DHT22;34323;52.022;5.686;2023-01-13T16:04:10;13.50;99.90
48535;DHT22;34323;52.022;5.686;2023-01-13T16:06:36;13.20;99.90
48535;DHT22;34323;52.022;5.686;2023-01-13T16:09:03;13.30;99.90
48535;DHT22;34323;52.022;5.686;2023-01-13T16:11:29;13.30;99.90
48535;DHT22;34323;52.022;5.686;2023-01-13T16:13:54;13.50;99.90
48535;DHT22;34323;52.022;5.686;2023-01-13T16:16:22;13.70;99.90
48535;DHT22;34323;52.022;5.686;2023-01-13T16:18:49;13.80;99.90
48535;DHT22;34323;52.022;5.686;2023-01-13T16:21:15;13.70;99.90
48535;DHT22;34323;52.022;5.686;2023-01-13T16:23:41;13.70;99.90
48535;DHT22;34323;52.022;5.686;2023-01-13T16:26:17;13.70;99.90
48535;DHT22;34323;52.022;5.686;2023-01-13T16:28:43;13.80;99.90
48535;DHT22;34323;52.022;5.686;2023-01-13T16:33:47;13.80;99.90
48535;DHT22;34323;52.022;5.686;2023-01-13T16:36:15;13.40;99.90
48535;DHT22;34323;52.022;5.686;2023-01-13T16:38:41;13.20;99.90
48535;DHT22;34323;52.022;5.686;2023-01-13T16:41:07;13.20;99.90
48535;DHT22;34323;52.022;5.686;2023-01-13T16:43:34;13.20;99.90
48535;DHT22;34323;52.022;5.686;2023-01-13T16:45:59;13.30;99.90
48535;DHT22;34323;52.022;5.686;2023-01-13T16:48:25;13.20;99.90
48535;DHT22;34323;52.022;5.686;2023-01-13T16:50:51;13.50;99.90
48535;DHT22;34323;52.022;5.686;2023-01-13T16:53:16;13.50;99.90
48535;DHT22;34323;52.022;5.686;2023-01-13T16:55:42;13.80;99.90
48535;DHT22;34323;52.022;5.686;2023-01-13T16:58:18;13.70;99.90
48535;DHT22;34323;52.022;5.686;2023-01-13T17:00:45;14.00;99.90
48535;DHT22;34323;52.022;5.686;2023-01-13T17:03:15;14.00;99.90
48535;DHT22;34323;52.022;5.686;2023-01-13T17:05:41;14.00;99.90
48535;DHT22;34323;52.022;5.686;2023-01-13T17:08:15;13.60;99.90
48535;DHT22;34323;52.022;5.686;2023-01-13T17:10:42;13.40;99.90
48535;DHT22;34323;52.022;5.686;2023-01-13T17:13:08;13.20;99.90
48535;DHT22;34323;52.022;5.686;2023-01-13T17:15:34;13.30;99.90
48535;DHT22;34323;52.022;5.686;2023-01-13T17:18:01;13.30;99.90
48535;DHT22;34323;52.022;5.686;2023-01-13T17:20:27;13.20;99.90
48535;DHT22;34323;52.022;5.686;2023-01-13T17:22:52;13.20;99.90
48535;DHT22;34323;52.022;5.686;2023-01-13T17:25:18;12.90;99.90
48535;DHT22;34323;52.022;5.686;2023-01-13T17:27:44;12.20;99.90
48535;DHT22;34323;52.022;5.686;2023-01-13T17:30:10;11.70;99.90
48535;DHT22;34323;52.022;5.686;2023-01-13T17:32:36;11.70;99.90
48535;DHT22;34323;52.022;5.686;2023-01-13T17:35:02;11.40;99.90
48535;DHT22;34323;52.022;5.686;2023-01-13T17:37:28;11.40;99.90
48535;DHT22;34323;52.022;5.686;2023-01-13T17:39:54;11.60;99.90